Time;durP1;ratioP1;P1;durP2;ratioP2;P2;SDS_P1;SDS_P2;PMS_P1;PMS_P2;Temp;Humidity;BMP_temperature;BMP_pressure;BME280_temperature;BME280_humidity;BME280_pressure;Samples;Min_cycle;Max_cycle;Signal;HPM_P1;HPM_P2
2023/10/22 00:00:42;;;;;;;3.33;1.30;;;;;;;12.08;100.00;99613.59;5017117;28;20034;-48
2023/10/22 00:03:07;;;;;;;6.20;1.40;;;;;;;12.08;100.00;99610.94;5000895;28;20055;-49
2023/10/22 00:05:33;;;;;;;6.28;1.33;;;;;;;12.07;100.00;99616.41;4999359;28;20091;-48
2023/10/22 00:07:58;;;;;;;2.90;1.13;;;;;;;12.06;100.00;99614.75;4997503;28;20034;-49
2023/10/22 00:10:23;;;;;;;5.82;1.38;;;;;;;12.04;100.00;99622.91;4998311;28;20038;-48
2023/10/22 00:12:48;;;;;;;3.08;1.20;;;;;;;12.05;100.00;99623.72;5001032;28;20025;-48
2023/10/22 00:15:14;;;;;;;2.85;1.38;;;;;;;12.04;100.00;99641.53;5010764;28;20036;-48
2023/10/22 00:17:41;;;;;;;4.00;1.30;;;;;;;12.02;100.00;99644.34;4999695;28;20045;-48
2023/10/22 00:20:07;;;;;;;4.05;1.40;;;;;;;12.02;100.00;99635.50;4996010;28;20507;-48
2023/10/22 00:22:32;;;;;;;4.32;1.30;;;;;;;12.02;100.00;99641.69;4996223;28;20033;-48
2023/10/22 00:24:58;;;;;;;3.58;1.23;;;;;;;12.03;100.00;99647.84;4998246;28;20038;-48
2023/10/22 00:27:23;;;;;;;5.43;1.42;;;;;;;12.03;100.00;99654.00;5004639;28;20032;-48
2023/10/22 00:29:48;;;;;;;5.35;1.52;;;;;;;12.05;100.00;99645.03;5015873;28;20036;-50
2023/10/22 00:32:14;;;;;;;2.13;1.13;;;;;;;12.05;100.00;99651.16;5011219;28;20053;-48
2023/10/22 00:34:39;;;;;;;1.67;1.38;;;;;;;12.06;100.00;99657.31;5001592;28;20049;-48
2023/10/22 00:37:04;;;;;;;2.67;1.20;;;;;;;12.07;100.00;99664.31;5009924;28;20486;-48
2023/10/22 00:39:30;;;;;;;5.07;1.55;;;;;;;12.08;100.00;99672.16;4995370;28;20071;-49
2023/10/22 00:41:56;;;;;;;4.80;1.95;;;;;;;12.08;100.00;99666.00;4999831;28;20384;-47
2023/10/22 00:44:21;;;;;;;4.70;1.52;;;;;;;12.10;100.00;99669.34;4995826;28;20105;-48
2023/10/22 00:46:47;;;;;;;2.45;1.35;;;;;;;12.11;100.00;99679.84;5000220;28;20508;-48
2023/10/22 00:49:13;;;;;;;4.70;1.80;;;;;;;12.11;100.00;99679.00;4994673;28;20388;-48
2023/10/22 00:51:38;;;;;;;3.22;1.50;;;;;;;12.12;100.00;99686.81;4997807;28;20022;-48
2023/10/22 00:54:04;;;;;;;8.40;1.92;;;;;;;12.13;100.00;99685.81;4993995;28;20041;-48
2023/10/22 00:56:30;;;;;;;5.80;1.45;;;;;;;12.15;100.00;99683.84;4996680;28;20041;-48
2023/10/22 00:58:56;;;;;;;2.20;1.10;;;;;;;12.13;100.00;99688.50;4992288;28;20034;-48
2023/10/22 01:01:21;;;;;;;3.05;1.35;;;;;;;12.15;100.00;99689.16;4994222;28;20039;-49
2023/10/22 01:03:46;;;;;;;4.50;1.40;;;;;;;12.14;100.00;99684.84;4998598;28;20025;-48
2023/10/22 01:06:13;;;;;;;3.03;1.30;;;;;;;12.16;100.00;99698.00;4996793;28;20113;-48
2023/10/22 01:08:39;;;;;;;6.03;1.50;;;;;;;12.17;100.00;99697.00;4997101;28;20030;-49
2023/10/22 01:11:12;;;;;;;4.20;1.45;;;;;;;12.19;100.00;99709.16;4997188;28;20396;-49
2023/10/22 01:13:38;;;;;;;6.47;1.60;;;;;;;12.20;100.00;99702.00;4998207;28;20381;-49
2023/10/22 01:16:06;;;;;;;5.07;1.65;;;;;;;12.21;100.00;99712.50;5000619;28;20019;-48
2023/10/22 01:18:32;;;;;;;4.18;1.60;;;;;;;12.22;100.00;99713.34;5008966;28;20440;-49
2023/10/22 01:20:57;;;;;;;3.10;1.20;;;;;;;12.24;100.00;99723.81;4994929;28;20050;-49
2023/10/22 01:23:23;;;;;;;4.43;1.50;;;;;;;12.23;100.00;99727.50;4998387;28;20049;-49
2023/10/22 01:25:48;;;;;;;4.45;1.70;;;;;;;12.22;100.00;99729.31;5000640;28;20073;-48
2023/10/22 01:28:14;;;;;;;2.35;1.50;;;;;;;12.20;100.00;99736.63;4996491;28;20026;-49
2023/10/22 01:30:39;;;;;;;2.80;1.30;;;;;;;12.18;100.00;99736.78;4997128;28;20030;-50
2023/10/22 01:33:04;;;;;;;3.08;1.65;;;;;;;12.17;100.00;99739.59;4997307;28;20038;-49
2023/10/22 01:35:30;;;;;;;5.30;1.60;;;;;;;12.16;100.00;99748.59;4998706;28;20026;-49
2023/10/22 01:37:55;;;;;;;4.72;1.83;;;;;;;12.14;100.00;99763.84;4994634;28;20087;-49
2023/10/22 01:40:20;;;;;;;5.40;1.48;;;;;;;12.11;100.00;99766.84;4998774;28;20030;-49
2023/10/22 01:42:45;;;;;;;3.47;1.20;;;;;;;12.10;100.00;99770.47;4999803;28;20106;-51
2023/10/22 01:45:11;;;;;;;3.15;1.40;;;;;;;12.07;100.00;99770.78;4997934;28;20477;-50
2023/10/22 01:47:37;;;;;;;7.18;1.60;;;;;;;12.03;100.00;99776.41;4996566;28;20041;-49
2023/10/22 01:50:04;;;;;;;3.92;1.67;;;;;;;12.00;100.00;99783.88;4998007;28;20038;-49
2023/10/22 01:52:30;;;;;;;7.10;2.00;;;;;;;11.97;100.00;99786.84;4995646;28;20392;-50
2023/10/22 01:54:55;;;;;;;4.07;1.33;;;;;;;11.93;100.00;99786.31;4998577;28;20022;-50
2023/10/22 01:57:20;;;;;;;4.10;1.50;;;;;;;11.91;100.00;99788.28;5007534;28;20037;-51
2023/10/22 01:59:46;;;;;;;4.32;1.50;;;;;;;11.88;100.00;99795.72;5010189;28;20057;-50
2023/10/22 02:02:11;;;;;;;5.72;1.80;;;;;;;11.85;100.00;99799.50;4995275;28;20034;-51
2023/10/22 02:04:36;;;;;;;5.28;1.70;;;;;;;11.82;100.00;99799.78;4995095;28;20038;-51
2023/10/22 02:07:02;;;;;;;5.78;1.52;;;;;;;11.78;100.00;99801.94;4995551;28;20109;-51
2023/10/22 02:09:27;;;;;;;5.30;1.60;;;;;;;11.74;100.00;99802.38;5008962;28;20034;-51
2023/10/22 02:11:55;;;;;;;4.60;1.63;;;;;;;11.70;100.00;99811.66;5000945;28;20099;-50
2023/10/22 02:14:20;;;;;;;4.10;1.50;;;;;;;11.68;100.00;99805.66;4997051;28;20034;-49
2023/10/22 02:16:46;;;;;;;3.35;1.52;;;;;;;11.65;100.00;99814.75;4996199;28;20075;-50
2023/10/22 02:19:11;;;;;;;6.78;1.60;;;;;;;11.63;100.00;99819.41;4999716;28;20507;-49
2023/10/22 02:21:36;;;;;;;4.78;1.88;;;;;;;11.62;100.00;99831.00;4994308;28;20026;-50
2023/10/22 02:24:02;;;;;;;3.88;1.63;;;;;;;11.61;100.00;99829.34;4999800;28;20033;-50
2023/10/22 02:26:27;;;;;;;2.90;1.40;;;;;;;11.60;100.00;99833.81;4995646;28;20512;-49
2023/10/22 02:28:52;;;;;;;5.57;1.83;;;;;;;11.58;100.00;99832.31;5001492;28;20091;-49
2023/10/22 02:31:18;;;;;;;8.95;1.88;;;;;;;11.58;100.00;99842.94;4998374;28;20293;-49
2023/10/22 02:33:43;;;;;;;3.78;1.60;;;;;;;11.55;100.00;99844.06;4996296;28;20030;-50
2023/10/22 02:36:08;;;;;;;4.63;1.52;;;;;;;11.55;100.00;99861.84;4996449;28;20030;-50
2023/10/22 02:38:36;;;;;;;5.43;1.75;;;;;;;11.53;100.00;99859.34;4996223;28;20027;-51
2023/10/22 02:41:02;;;;;;;5.93;1.67;;;;;;;11.51;100.00;99853.34;4998805;28;20057;-50
2023/10/22 02:43:28;;;;;;;4.45;2.03;;;;;;;11.50;100.00;99859.63;4999238;28;20621;-52
2023/10/22 02:45:55;;;;;;;4.80;1.85;;;;;;;11.47;100.00;99866.09;5004800;28;20133;-49
2023/10/22 02:48:20;;;;;;;4.47;1.70;;;;;;;11.47;100.00;99873.22;4999024;28;20468;-49
2023/10/22 02:50:46;;;;;;;3.67;1.80;;;;;;;11.45;100.00;99878.69;5001305;28;20037;-50
2023/10/22 02:53:13;;;;;;;5.45;1.98;;;;;;;11.43;100.00;99883.31;4999113;28;20042;-49
2023/10/22 02:55:39;;;;;;;3.55;1.67;;;;;;;11.42;100.00;99889.63;4999740;28;20026;-49
2023/10/22 02:58:04;;;;;;;8.20;2.20;;;;;;;11.41;100.00;99887.13;4996171;28;20059;-49
2023/10/22 03:00:30;;;;;;;7.70;2.33;;;;;;;11.40;100.00;99896.06;5000256;28;20033;-49
2023/10/22 03:02:55;;;;;;;5.93;2.22;;;;;;;11.40;100.00;99902.22;5000899;28;20442;-49
2023/10/22 03:05:20;;;;;;;6.07;2.03;;;;;;;11.38;100.00;99906.84;5002531;28;20116;-49
2023/10/22 03:07:46;;;;;;;6.05;1.98;;;;;;;11.39;100.00;99899.69;4997244;28;20443;-49
2023/10/22 03:10:11;;;;;;;3.22;2.10;;;;;;;11.38;100.00;99908.69;5002599;28;20027;-50
2023/10/22 03:12:37;;;;;;;6.40;2.20;;;;;;;11.37;100.00;99907.00;4995482;28;20377;-49
2023/10/22 03:15:03;;;;;;;3.92;1.90;;;;;;;11.36;100.00;99927.44;5002914;28;20498;-48
2023/10/22 03:17:29;;;;;;;8.18;2.13;;;;;;;11.35;100.00;99940.88;4999122;28;20079;-49
2023/10/22 03:19:54;;;;;;;4.38;2.13;;;;;;;11.34;100.00;99932.06;4998421;28;20029;-48
2023/10/22 03:22:20;;;;;;;4.30;2.40;;;;;;;11.35;100.00;99941.69;4998697;28;20037;-49
2023/10/22 03:24:49;;;;;;;6.82;2.75;;;;;;;11.32;100.00;99946.47;5000409;28;20022;-48
2023/10/22 03:27:14;;;;;;;7.60;2.85;;;;;;;11.29;100.00;99951.09;4999557;28;20472;-50
2023/10/22 03:29:39;;;;;;;4.40;2.83;;;;;;;11.29;100.00;99956.41;5001164;28;20028;-49
2023/10/22 03:32:05;;;;;;;4.60;2.63;;;;;;;11.25;100.00;99967.47;4997016;28;20026;-49
2023/10/22 03:34:30;;;;;;;6.13;3.05;;;;;;;11.24;100.00;99966.66;5003527;28;20026;-49
2023/10/22 03:36:56;;;;;;;4.25;2.90;;;;;;;11.21;100.00;99979.38;5014753;28;20024;-49
2023/10/22 03:39:21;;;;;;;5.70;3.03;;;;;;;11.20;100.00;99986.50;4998666;28;20026;-49
2023/10/22 03:41:47;;;;;;;6.70;3.13;;;;;;;11.17;100.00;99985.94;4994891;28;20029;-49
2023/10/22 03:44:12;;;;;;;7.03;3.30;;;;;;;11.13;100.00;99996.03;5000471;28;20029;-51
2023/10/22 03:46:37;;;;;;;6.22;3.20;;;;;;;11.10;100.00;99999.81;4999070;28;20537;-49
2023/10/22 03:49:03;;;;;;;6.43;3.65;;;;;;;11.08;100.00;100008.91;4998645;28;20137;-50
2023/10/22 03:51:29;;;;;;;8.15;3.88;;;;;;;11.05;100.00;100007.34;4997196;28;20113;-48
2023/10/22 03:53:56;;;;;;;7.65;3.60;;;;;;;11.04;100.00;100016.34;5001399;28;20030;-53
2023/10/22 03:56:22;;;;;;;6.60;3.88;;;;;;;11.03;100.00;100024.44;4998917;28;20079;-49
2023/10/22 03:58:47;;;;;;;5.30;3.80;;;;;;;11.01;100.00;100023.75;5002404;28;20022;-49
2023/10/22 04:01:12;;;;;;;5.07;3.50;;;;;;;10.99;100.00;100023.88;4995367;28;20469;-49
2023/10/22 04:03:38;;;;;;;8.02;3.60;;;;;;;10.99;100.00;100031.84;4997973;28;20042;-48
2023/10/22 04:06:03;;;;;;;5.25;3.80;;;;;;;10.97;100.00;100039.09;5001665;28;20022;-50
2023/10/22 04:08:29;;;;;;;5.40;4.07;;;;;;;10.96;100.00;100042.75;5001134;28;20029;-49
2023/10/22 04:10:55;;;;;;;8.10;4.35;;;;;;;10.97;100.00;100048.91;4995118;28;20026;-49
2023/10/22 04:13:20;;;;;;;7.25;4.38;;;;;;;10.95;100.00;100053.53;5000789;28;20438;-49
2023/10/22 04:15:46;;;;;;;9.05;4.30;;;;;;;10.93;100.00;100051.00;4997673;28;20113;-49
2023/10/22 04:18:16;;;;;;;8.10;4.20;;;;;;;10.92;100.00;100057.28;4999485;28;20033;-49
2023/10/22 04:20:42;;;;;;;6.00;4.15;;;;;;;10.91;100.00;100071.56;4998651;28;20504;-49
2023/10/22 04:23:10;;;;;;;5.68;3.88;;;;;;;10.89;100.00;100074.38;4999245;28;20018;-48
2023/10/22 04:25:40;;;;;;;7.03;3.97;;;;;;;10.88;100.00;100080.66;4994117;28;20083;-49
2023/10/22 04:28:09;;;;;;;8.23;3.92;;;;;;;10.86;100.00;100076.47;4995654;28;20034;-49
2023/10/22 04:30:38;;;;;;;5.00;3.70;;;;;;;10.86;100.00;100089.75;5001488;28;20361;-48
2023/10/22 04:33:05;;;;;;;8.50;3.95;;;;;;;10.82;100.00;100083.84;4997990;28;20033;-48
2023/10/22 04:35:34;;;;;;;5.82;4.03;;;;;;;10.82;100.00;100090.97;5013578;28;20537;-48
2023/10/22 04:38:00;;;;;;;6.13;3.75;;;;;;;10.78;100.00;100090.41;4999203;28;20472;-49
2023/10/22 04:40:30;;;;;;;8.80;3.90;;;;;;;10.76;100.00;100097.69;4991495;28;20038;-49
2023/10/22 04:42:57;;;;;;;3.70;3.28;;;;;;;10.71;100.00;100094.63;5000789;28;20030;-48
2023/10/22 04:45:22;;;;;;;6.43;3.75;;;;;;;10.69;100.00;100108.03;4996966;28;20061;-49
2023/10/22 04:47:47;;;;;;;5.60;3.58;;;;;;;10.66;100.00;100116.25;5001309;28;20037;-49
2023/10/22 04:50:13;;;;;;;6.10;3.50;;;;;;;10.63;100.00;100113.88;4994215;28;20101;-49
2023/10/22 04:52:38;;;;;;;5.63;3.45;;;;;;;10.60;100.00;100121.28;5003344;28;20030;-49
2023/10/22 04:55:03;;;;;;;6.70;4.00;;;;;;;10.58;100.00;100128.56;5010531;27;20030;-49
2023/10/22 04:57:29;;;;;;;8.02;3.78;;;;;;;10.53;100.00;100127.13;5000903;28;20030;-49
2023/10/22 04:59:54;;;;;;;6.45;3.40;;;;;;;10.48;100.00;100132.00;4994008;28;20338;-48
2023/10/22 05:02:20;;;;;;;6.03;3.72;;;;;;;10.45;100.00;100136.75;5003546;28;20079;-49
2023/10/22 05:04:47;;;;;;;5.60;4.18;;;;;;;10.41;100.00;100144.13;4997256;28;20045;-48
2023/10/22 05:07:14;;;;;;;7.25;3.90;;;;;;;10.36;100.00;100141.03;4994174;28;20022;-48
2023/10/22 05:09:39;;;;;;;9.77;3.90;;;;;;;10.35;100.00;100145.50;4998171;28;20034;-50
2023/10/22 05:12:05;;;;;;;7.25;3.92;;;;;;;10.32;100.00;100156.38;4995030;28;20026;-48
2023/10/22 05:14:31;;;;;;;4.90;3.97;;;;;;;10.28;100.00;100162.91;4996536;28;20030;-49
2023/10/22 05:16:56;;;;;;;6.28;3.47;;;;;;;10.25;100.00;100163.16;4998794;28;20027;-48
2023/10/22 05:19:22;;;;;;;4.88;3.55;;;;;;;10.22;100.00;100159.94;4997889;28;20030;-49
2023/10/22 05:21:47;;;;;;;9.93;3.78;;;;;;;10.19;100.00;100166.34;5016972;28;20386;-49
2023/10/22 05:24:12;;;;;;;5.28;4.03;;;;;;;10.16;100.00;100171.94;4998981;28;20058;-48
2023/10/22 05:26:38;;;;;;;4.43;3.08;;;;;;;10.12;100.00;100167.84;4997220;28;20092;-51
2023/10/22 05:29:03;;;;;;;9.63;3.55;;;;;;;10.09;100.00;100181.38;4998024;28;20030;-49
2023/10/22 05:31:30;;;;;;;5.97;3.50;;;;;;;10.06;100.00;100190.44;4996319;28;20038;-49
2023/10/22 05:33:56;;;;;;;11.57;3.95;;;;;;;10.03;100.00;100188.03;5007006;28;20036;-49
2023/10/22 05:36:21;;;;;;;6.20;3.63;;;;;;;10.00;100.00;100186.47;4996363;28;20038;-51
2023/10/22 05:38:48;;;;;;;8.57;3.88;;;;;;;9.99;100.00;100191.91;4997600;28;20087;-50
2023/10/22 05:41:24;;;;;;;9.07;3.75;;;;;;;9.96;100.00;100186.91;4997306;28;20026;-51
2023/10/22 05:43:59;;;;;;;6.18;3.88;;;;;;;9.91;100.00;100202.34;4997376;28;20372;-49
2023/10/22 05:46:25;;;;;;;4.97;3.38;;;;;;;9.88;100.00;100206.09;4996160;28;20050;-52
2023/10/22 05:48:51;;;;;;;6.93;3.67;;;;;;;9.86;100.00;100210.69;4994268;28;20030;-49
2023/10/22 05:51:16;;;;;;;8.93;3.95;;;;;;;9.83;100.00;100210.94;4998204;28;20388;-48
2023/10/22 05:53:41;;;;;;;6.97;3.72;;;;;;;9.82;100.00;100209.25;5004037;28;20033;-49
2023/10/22 05:56:07;;;;;;;5.82;3.50;;;;;;;9.79;100.00;100213.03;4996152;28;20034;-48
2023/10/22 05:58:32;;;;;;;4.78;3.10;;;;;;;9.76;100.00;100226.53;4992257;28;20034;-48
2023/10/22 06:00:57;;;;;;;7.63;3.60;;;;;;;9.74;100.00;100222.31;4995478;28;20549;-48
2023/10/22 06:03:23;;;;;;;4.80;3.25;;;;;;;9.71;100.00;100233.16;4996025;28;20038;-50
2023/10/22 06:05:49;;;;;;;7.05;3.30;;;;;;;9.68;100.00;100236.94;4996033;28;20030;-49
2023/10/22 06:08:14;;;;;;;6.07;3.05;;;;;;;9.65;100.00;100239.84;4987489;28;20034;-48
2023/10/22 06:10:41;;;;;;;5.45;3.00;;;;;;;9.63;100.00;100247.91;4992728;28;20022;-50
2023/10/22 06:13:06;;;;;;;5.95;2.65;;;;;;;9.61;100.00;100247.19;4992314;28;20038;-49
2023/10/22 06:15:32;;;;;;;6.50;2.40;;;;;;;9.59;100.00;100256.25;4999675;28;20037;-49
2023/10/22 06:17:57;;;;;;;6.65;2.97;;;;;;;9.58;100.00;100263.34;4998411;28;20354;-49
2023/10/22 06:20:22;;;;;;;5.43;2.65;;;;;;;9.60;100.00;100257.94;4997008;28;20068;-48
2023/10/22 06:22:47;;;;;;;10.18;2.65;;;;;;;9.61;100.00;100270.22;5001115;28;20465;-48
2023/10/22 06:25:13;;;;;;;8.10;2.72;;;;;;;9.60;100.00;100266.72;5003309;28;20037;-49
2023/10/22 06:27:39;;;;;;;3.53;2.60;;;;;;;9.61;100.00;100275.53;5001875;28;20116;-49
2023/10/22 06:30:05;;;;;;;2.67;2.47;;;;;;;9.61;100.00;100278.19;4996945;28;20034;-48
2023/10/22 06:32:30;;;;;;;5.38;2.45;;;;;;;9.61;100.00;100284.31;4999424;28;20087;-48
2023/10/22 06:34:55;;;;;;;5.10;2.17;;;;;;;9.63;100.00;100289.50;4998829;28;20026;-51
2023/10/22 06:37:20;;;;;;;6.03;2.40;;;;;;;9.66;100.00;100293.69;5016517;28;20125;-49
2023/10/22 06:39:46;;;;;;;9.30;2.28;;;;;;;9.67;100.00;100303.34;4997111;28;20988;-49
2023/10/22 06:42:11;;;;;;;3.92;2.22;;;;;;;9.68;100.00;100313.84;4995984;28;20022;-52
2023/10/22 06:44:41;;;;;;;4.40;2.30;;;;;;;9.70;100.00;100309.25;4995043;28;20061;-49
2023/10/22 06:47:07;;;;;;;5.95;2.30;;;;;;;9.70;100.00;100306.59;4998311;28;20050;-49
2023/10/22 06:49:32;;;;;;;6.47;2.40;;;;;;;9.75;100.00;100311.53;5005933;28;20137;-48
2023/10/22 06:51:57;;;;;;;3.20;1.85;;;;;;;9.76;100.00;100314.06;4997204;28;20034;-49
2023/10/22 06:54:23;;;;;;;6.53;2.30;;;;;;;9.78;100.00;100320.06;5004091;28;20038;-49
2023/10/22 06:56:48;;;;;;;7.43;2.22;;;;;;;9.84;100.00;100329.31;5002845;28;20071;-49
2023/10/22 06:59:13;;;;;;;4.93;1.90;;;;;;;9.87;100.00;100339.69;5004772;28;20026;-49
2023/10/22 07:01:38;;;;;;;4.63;1.85;;;;;;;9.89;100.00;100337.78;4997524;28;20035;-49
2023/10/22 07:04:04;;;;;;;6.53;2.00;;;;;;;9.92;100.00;100342.78;4999987;28;20030;-48
2023/10/22 07:06:29;;;;;;;4.78;2.20;;;;;;;9.95;100.00;100344.38;4995491;28;20034;-50
2023/10/22 07:08:55;;;;;;;3.67;2.08;;;;;;;9.97;100.00;100348.56;5002284;28;20022;-51
2023/10/22 07:11:20;;;;;;;5.53;1.98;;;;;;;9.99;100.00;100353.75;4994906;28;20030;-51
2023/10/22 07:13:46;;;;;;;5.63;2.05;;;;;;;10.00;100.00;100358.94;4996422;28;20777;-51
2023/10/22 07:16:11;;;;;;;4.22;2.00;;;;;;;10.01;100.00;100365.09;4995723;28;20577;-50
2023/10/22 07:18:37;;;;;;;5.28;2.10;;;;;;;10.02;100.00;100368.59;4996999;28;20030;-49
2023/10/22 07:21:02;;;;;;;4.82;2.10;;;;;;;10.03;100.00;100384.38;4997534;28;20026;-49
2023/10/22 07:23:31;;;;;;;4.43;2.00;;;;;;;10.02;100.00;100382.69;4997918;28;20037;-48
2023/10/22 07:25:56;;;;;;;6.03;2.13;;;;;;;10.02;100.00;100393.31;4996506;28;20115;-48
2023/10/22 07:28:22;;;;;;;4.57;2.22;;;;;;;10.03;100.00;100402.13;5002119;28;20053;-49
2023/10/22 07:30:48;;;;;;;5.70;2.10;;;;;;;10.01;100.00;100396.94;4995221;28;20443;-49
2023/10/22 07:33:14;;;;;;;5.32;2.00;;;;;;;10.02;100.00;100392.47;4998888;28;20022;-48
2023/10/22 07:35:40;;;;;;;3.83;1.92;;;;;;;10.03;100.00;100402.97;5002987;28;20026;-47
2023/10/22 07:38:05;;;;;;;3.72;2.00;;;;;;;10.04;100.00;100409.94;4997907;28;20018;-48
2023/10/22 07:40:30;;;;;;;4.72;2.30;;;;;;;10.05;100.00;100413.44;4994208;28;20088;-47
2023/10/22 07:42:55;;;;;;;5.47;2.40;;;;;;;10.05;100.00;100416.09;5014442;28;20054;-48
2023/10/22 07:45:21;;;;;;;5.20;2.10;;;;;;;10.07;100.00;100419.47;4994685;28;20107;-48
2023/10/22 07:47:46;;;;;;;8.43;2.42;;;;;;;10.12;100.00;100423.41;4999668;28;20037;-47
2023/10/22 07:50:11;;;;;;;6.97;2.08;;;;;;;10.16;100.00;100427.53;5001039;28;20052;-48
2023/10/22 07:52:37;;;;;;;5.38;2.30;;;;;;;10.21;100.00;100437.78;4998888;28;20437;-49
2023/10/22 07:55:04;;;;;;;8.35;2.50;;;;;;;10.26;100.00;100432.94;5017947;28;20072;-48
2023/10/22 07:57:29;;;;;;;4.93;2.15;;;;;;;10.31;100.00;100436.03;4994495;28;20117;-48
2023/10/22 07:59:57;;;;;;;5.70;2.40;;;;;;;10.38;100.00;100435.59;4996326;28;20122;-48
2023/10/22 08:02:23;;;;;;;5.28;2.00;;;;;;;10.42;100.00;100440.50;4994999;28;20033;-49
2023/10/22 08:04:49;;;;;;;7.35;2.55;;;;;;;10.49;100.00;100440.81;4999475;28;20022;-48
2023/10/22 08:07:17;;;;;;;5.18;2.17;;;;;;;10.58;100.00;100436.59;4995489;28;20027;-48
2023/10/22 08:09:43;;;;;;;3.95;2.28;;;;;;;10.65;100.00;100435.94;4993233;28;20396;-48
2023/10/22 08:12:08;;;;;;;7.63;2.47;;;;;;;10.72;100.00;100433.59;4999465;28;20023;-48
2023/10/22 08:14:33;;;;;;;6.10;2.60;;;;;;;10.81;100.00;100439.94;4994474;28;20473;-48
2023/10/22 08:16:59;;;;;;;5.95;2.30;;;;;;;10.89;100.00;100442.81;4993991;28;20033;-49
2023/10/22 08:19:25;;;;;;;4.80;2.45;;;;;;;10.98;100.00;100441.19;5000918;28;20026;-47
2023/10/22 08:21:50;;;;;;;7.93;2.60;;;;;;;11.07;100.00;100443.94;4999376;28;20022;-48
2023/10/22 08:24:15;;;;;;;3.08;2.20;;;;;;;11.17;100.00;100449.28;4993667;28;20029;-48
2023/10/22 08:26:40;;;;;;;6.07;2.40;;;;;;;11.27;100.00;100450.19;4997774;28;20078;-48
2023/10/22 08:29:08;;;;;;;5.53;2.47;;;;;;;11.38;100.00;100465.22;4996043;28;20476;-49
2023/10/22 08:31:33;;;;;;;6.43;2.33;;;;;;;11.47;100.00;100466.22;4996378;28;20529;-48
2023/10/22 08:33:59;;;;;;;5.25;2.45;;;;;;;11.54;100.00;100467.41;4993707;28;20038;-48
2023/10/22 08:36:24;;;;;;;6.60;2.60;;;;;;;11.61;100.00;100467.72;4993418;28;20030;-47
2023/10/22 08:38:49;;;;;;;5.93;2.88;;;;;;;11.68;100.00;100473.34;5010054;28;20030;-47
2023/10/22 08:41:22;;;;;;;7.95;2.50;;;;;;;11.74;100.00;100476.31;4991470;28;20030;-47
2023/10/22 08:43:49;;;;;;;4.78;2.80;;;;;;;11.79;100.00;100486.53;4992512;28;20337;-47
2023/10/22 08:46:18;;;;;;;9.15;2.90;;;;;;;11.84;100.00;100486.97;4996725;28;20068;-47
2023/10/22 08:48:44;;;;;;;6.88;2.38;;;;;;;11.90;100.00;100493.56;4998790;28;20162;-47
2023/10/22 08:51:10;;;;;;;5.80;2.30;;;;;;;11.96;100.00;100483.25;5000233;28;20083;-47
2023/10/22 08:53:36;;;;;;;8.10;2.70;;;;;;;12.00;100.00;100494.47;5002461;28;20027;-48
2023/10/22 08:56:02;;;;;;;5.38;2.72;;;;;;;12.04;100.00;100493.25;4997411;28;20029;-47
2023/10/22 08:58:27;;;;;;;9.15;2.70;;;;;;;12.06;100.00;100499.28;5001270;28;20029;-47
2023/10/22 09:00:53;;;;;;;6.47;2.88;;;;;;;12.10;100.00;100491.84;4999092;28;20036;-47
2023/10/22 09:03:21;;;;;;;7.75;2.95;;;;;;;12.16;100.00;100504.63;5000684;28;20033;-47
2023/10/22 09:05:48;;;;;;;4.05;2.72;;;;;;;12.20;100.00;100508.69;4994919;28;20521;-47
2023/10/22 09:08:14;;;;;;;5.30;2.92;;;;;;;12.26;100.00;100512.59;4995618;28;20029;-47
2023/10/22 09:10:40;;;;;;;7.35;3.08;;;;;;;12.31;100.00;100513.06;4998672;28;20035;-47
2023/10/22 09:13:14;;;;;;;7.00;3.22;;;;;;;12.34;100.00;100523.41;4994163;28;20072;-48
2023/10/22 09:15:41;;;;;;;4.80;2.95;;;;;;;12.37;100.00;100521.34;4998361;28;20036;-48
2023/10/22 09:18:07;;;;;;;5.05;3.15;;;;;;;12.43;100.00;100517.28;4994002;28;20033;-47
2023/10/22 09:20:36;;;;;;;7.85;3.45;;;;;;;12.48;100.00;100527.53;4992713;28;20461;-47
2023/10/22 09:23:13;;;;;;;;;;;;;;;12.57;100.00;100529.34;4994734;28;20090;-47
2023/10/22 09:25:39;;;;;;;8.10;3.55;;;;;;;12.57;100.00;100521.34;4993772;28;20022;-47
2023/10/22 09:28:16;;;;;;;7.70;3.92;;;;;;;12.60;100.00;100531.75;4994076;28;20040;-47
2023/10/22 09:30:42;;;;;;;6.18;3.78;;;;;;;12.62;100.00;100532.44;4993878;28;20484;-47
2023/10/22 09:33:10;;;;;;;5.28;3.17;;;;;;;12.64;100.00;100535.84;4992686;28;20030;-47
2023/10/22 09:35:37;;;;;;;6.67;3.33;;;;;;;12.66;100.00;100543.69;5005602;28;20121;-47
2023/10/22 09:38:02;;;;;;;8.50;3.30;;;;;;;12.67;100.00;100542.69;4995501;28;20393;-47
2023/10/22 09:40:31;;;;;;;4.07;3.33;;;;;;;12.69;100.00;100546.91;4994024;28;20032;-47
2023/10/22 09:42:57;;;;;;;8.23;3.35;;;;;;;12.73;100.00;100545.63;4990828;28;20066;-47
2023/10/22 09:45:23;;;;;;;4.28;3.15;;;;;;;12.77;100.00;100552.41;4991303;28;20111;-47
2023/10/22 09:47:54;;;;;;;6.18;3.70;;;;;;;12.80;100.00;100561.09;4994366;28;20029;-47
2023/10/22 09:50:22;;;;;;;10.00;3.28;;;;;;;12.84;100.00;100567.81;4978557;28;20045;-47
2023/10/22 09:52:50;;;;;;;5.85;3.20;;;;;;;12.85;100.00;100573.00;4991951;28;20033;-48
2023/10/22 09:55:17;;;;;;;7.22;3.22;;;;;;;12.89;100.00;100581.56;4997439;28;20029;-48
2023/10/22 09:57:45;;;;;;;5.38;3.05;;;;;;;12.91;100.00;100585.78;4999516;28;20115;-47
2023/10/22 10:00:12;;;;;;;5.63;3.43;;;;;;;12.92;100.00;100582.16;5011662;28;20034;-47
2023/10/22 10:02:39;;;;;;;8.00;3.58;;;;;;;12.94;100.00;100584.69;4999316;28;20281;-47
2023/10/22 10:05:06;;;;;;;6.00;3.00;;;;;;;12.96;100.00;100570.22;4999274;28;20483;-47
2023/10/22 10:07:31;;;;;;;3.95;2.85;;;;;;;13.00;100.00;100570.75;4998569;28;20027;-48
2023/10/22 10:09:59;;;;;;;3.30;3.00;;;;;;;13.05;100.00;100565.84;5001282;28;20026;-48
2023/10/22 10:12:28;;;;;;;4.05;2.80;;;;;;;13.10;100.00;100576.94;4995129;28;20273;-48
2023/10/22 10:14:54;;;;;;;5.32;2.88;;;;;;;13.17;100.00;100585.22;4999379;28;20030;-47
2023/10/22 10:17:20;;;;;;;4.75;3.10;;;;;;;13.26;100.00;100586.22;5003520;28;20045;-47
2023/10/22 10:19:47;;;;;;;6.43;3.10;;;;;;;13.29;100.00;100594.78;4998072;28;20015;-48
2023/10/22 10:22:39;;;;;;;4.70;3.28;;;;;;;13.34;100.00;100594.38;4996688;28;20425;-48
2023/10/22 10:25:34;;;;;;;5.60;2.80;;;;;;;13.38;100.00;100594.94;5004650;28;20014;-48
2023/10/22 10:28:05;;;;;;;7.25;3.20;;;;;;;13.38;100.00;100595.78;5001712;28;20577;-47
2023/10/22 10:30:31;;;;;;;4.88;2.80;;;;;;;13.42;100.00;100599.84;5002474;28;20465;-48
2023/10/22 10:32:56;;;;;;;3.67;2.85;;;;;;;13.43;100.00;100598.03;5003553;28;20079;-48
2023/10/22 10:35:24;;;;;;;5.50;2.70;;;;;;;13.47;100.00;100608.28;5001774;28;20466;-48
2023/10/22 10:38:13;;;;;;;3.92;2.67;;;;;;;13.53;100.00;100600.69;5000156;28;20026;-47
2023/10/22 10:40:53;;;;;;;5.85;2.75;;;;;;;13.53;100.00;100612.19;5003241;28;20083;-47
2023/10/22 10:43:20;;;;;;;6.57;2.75;;;;;;;13.54;100.00;100605.00;5000798;28;20022;-47
2023/10/22 10:46:23;;;;;;;5.43;2.50;;;;;;;13.61;100.00;100600.81;5000035;28;20090;-48
2023/10/22 10:48:48;;;;;;;4.57;2.53;;;;;;;13.64;100.00;100604.03;4994355;28;20536;-47
2023/10/22 10:51:18;;;;;;;7.47;3.50;;;;;;;13.64;100.00;100603.19;4996638;28;20113;-47
2023/10/22 10:54:07;;;;;;;5.88;2.90;;;;;;;13.73;100.00;100609.50;4995441;28;20039;-47
2023/10/22 10:56:49;;;;;;;5.20;3.03;;;;;;;13.76;100.00;100610.03;5008342;28;20064;-47
2023/10/22 10:59:25;;;;;;;6.55;3.10;;;;;;;13.79;100.00;100614.22;5001536;28;20494;-47
2023/10/22 11:02:00;;;;;;;4.55;2.72;;;;;;;13.88;100.00;100614.22;4997385;28;20545;-47
2023/10/22 11:04:25;;;;;;;3.42;2.78;;;;;;;13.91;100.00;100614.94;4999515;28;20038;-47
2023/10/22 11:06:51;;;;;;;6.63;3.05;;;;;;;13.96;100.00;100613.50;4997102;28;20112;-49
2023/10/22 11:09:16;;;;;;;4.20;2.78;;;;;;;13.99;100.00;100609.69;4998362;28;20076;-47
2023/10/22 11:11:55;;;;;;;6.00;3.15;;;;;;;14.05;100.00;100607.31;5000993;28;20074;-48
2023/10/22 11:14:20;;;;;;;5.25;3.20;;;;;;;14.11;100.00;100608.53;5016796;28;20033;-47
2023/10/22 11:16:56;;;;;;;5.35;3.45;;;;;;;14.17;100.00;100618.63;5000340;28;20030;-48
2023/10/22 11:19:28;;;;;;;6.93;3.00;;;;;;;14.17;100.00;100623.97;5000760;28;20050;-47